• Join FlightAware (Why Join?)
  • Login
  • US Flag 
01:11AM EDT


 

Airport Tracker/Info


-or-


 

Live Flight TrackerFlight Track Log ✈ N333HC ✈ 21-Apr-2014 ✈ KGGG - KMAF

Flight Track Log - Related Links

Times and Time Zones

All times are in EDT time to prevent confusion due to time zone crossing. See the N333HC flight status page for this flight to view local times or setup timezone preferences in your user account.

Time Position Orientation Groundspeed Altitude Reporting Facility
EDT Latitude Longitude Course Direction KTS MPH feet Rate Location/Type
11:57AM 32.3447 -94.7317 268° West 167 192 3,700  Level Fort Worth Center
11:58AM 32.3419 -94.7817 266° West 160 184 5,700 1,800 Climbing Fort Worth Center
11:59AM 32.3417 -94.8344 270° West 159 183 7,500 1,740 Climbing Fort Worth Center
12:00PM 32.3397 -94.8886 268° West 163 188 9,300 1,980 Climbing Fort Worth Center
12:01PM 32.3383 -94.9564 269° West 169 194 11,700 1,920 Climbing Fort Worth Center
12:02PM 32.3667 -95.1908 270° West  Level FlightAware Approximate
12:02PM 32.3386 -95.0097 270° West 170 196 13,300  Level Fort Worth Center
12:03PM 32.3378 -95.0675 269° West 174 200 15,000 1,620 Climbing Fort Worth Center
12:04PM 32.3367 -95.1258 269° West 176 203 16,700 1,620 Climbing Fort Worth Center
12:05PM 32.3350 -95.1975 268° West 180 207 18,400 1,440 Climbing Fort Worth Center
12:07PM 32.3350 -95.2581 270° West 181 208 19,700 1,200 Climbing Fort Worth Center
12:08PM 32.3328 -95.3197 268° West 184 212 21,000 960 Climbing Fort Worth Center
12:09PM 32.3322 -95.3822 269° West 188 216 21,800 480 Climbing Fort Worth Center
12:10PM 32.3311 -95.4561 269° West 220 253 22,000 60 Climbing Fort Worth Center
12:11PM 32.3292 -95.5361 268° West 241 277 22,000  Level Fort Worth Center
12:12PM 32.3275 -95.6364 269° West 253 291 22,000  Level Fort Worth Center
12:13PM 32.3258 -95.7206 269° West 255 293 22,000  Level Fort Worth Center
12:14PM 32.3253 -95.8050 270° West 256 295 22,000  Level Fort Worth Center
12:15PM 32.3211 -95.8900 267° West 257 296 22,000  Level Fort Worth Center
12:16PM 32.3206 -95.9889 270° West 257 296 22,000  Level Fort Worth Center
12:17PM 32.3183 -96.0750 268° West 261 300 22,000  Level Fort Worth Center
12:18PM 32.3158 -96.1622 268° West 264 304 22,000  Level Fort Worth Center
12:19PM 32.3136 -96.2519 268° West 256 295 22,000  Level Fort Worth Center
12:20PM 32.3122 -96.3372 269° West 256 295 22,000  Level Fort Worth Center
12:21PM 32.3072 -96.4292 266° West 258 297 22,000  Level Fort Worth Center
12:22PM 32.3039 -96.5139 267° West 258 297 22,000  Level Fort Worth Center
12:23PM 32.3003 -96.6064 267° West 259 298 22,000  Level Fort Worth Center
12:24PM 32.2975 -96.6906 268° West 258 297 22,000  Level Fort Worth Center
12:25PM 32.2936 -96.7747 267° West 258 297 22,000  Level Fort Worth Center
12:26PM 32.2906 -96.8658 268° West 258 297 22,000  Level Fort Worth Center
12:27PM 32.2861 -96.9514 267° West 261 300 22,000  Level Fort Worth Center
12:28PM 32.2825 -97.0436 267° West 261 300 22,000  Level Fort Worth Center
12:29PM 32.2781 -97.1294 267° West 261 300 22,000  Level Fort Worth Center
12:30PM 32.2742 -97.2208 267° West 264 304 22,000  Level Fort Worth Center
12:31PM 32.2694 -97.3136 267° West 264 304 22,000  Level Fort Worth Center
12:32PM 32.2658 -97.3994 267° West 264 304 22,000  Level Fort Worth Center
12:33PM 32.2611 -97.4850 266° West 263 303 22,000  Level Fort Worth Center
12:34PM 32.2567 -97.5778 267° West 263 303 22,000  Level Fort Worth Center
12:36PM 32.2531 -97.6650 267° West 264 304 22,000  Level Fort Worth Center
12:37PM 32.2478 -97.7578 266° West 263 303 22,000  Level Fort Worth Center
12:38PM 32.2442 -97.8428 267° West 262 302 22,000  Level Fort Worth Center
12:39PM 32.2394 -97.9300 266° West 263 303 22,000  Level Fort Worth Center
12:40PM 32.2350 -98.0233 267° West 263 303 22,000  Level Fort Worth Center
12:41PM 32.2306 -98.1089 267° West 263 303 22,000  Level Fort Worth Center
12:42PM 32.2264 -98.1875 266° West 263 303 22,000  Level Fort Worth Center
12:43PM 32.2200 -98.2911 266° West 263 303 22,000  Level Fort Worth Center
12:44PM 32.2153 -98.3767 266° West 263 303 22,000  Level Fort Worth Center
12:45PM 32.2106 -98.4556 266° West 263 303 22,000  Level Fort Worth Center
12:46PM 32.2058 -98.5436 266° West 267 307 22,000  Level Fort Worth Center
12:47PM 32.2003 -98.6481 266° West 266 306 22,000  Level Fort Worth Center
12:48PM 32.1947 -98.7336 266° West 264 304 22,000  Level Fort Worth Center
12:49PM 32.1894 -98.8211 266° West 264 304 22,000  Level Fort Worth Center
12:50PM 32.1847 -98.9083 266° West 264 304 22,000  Level Fort Worth Center
12:51PM 32.1797 -98.9947 266° West 264 304 22,000  Level Fort Worth Center
12:52PM 32.1739 -99.0831 266° West 266 306 22,000  Level Fort Worth Center
12:53PM 32.1661 -99.1869 265° West 266 306 22,000  Level Fort Worth Center
12:54PM 32.1617 -99.2750 267° West 266 306 22,000  Level Fort Worth Center
12:55PM 32.1550 -99.3636 265° West 267 307 22,000  Level Fort Worth Center
12:56PM 32.1500 -99.4497 266° West 266 306 22,000  Level Fort Worth Center
12:57PM 32.1450 -99.5392 266° West 268 308 22,000  Level Fort Worth Center
12:58PM 32.1386 -99.6258 265° West 267 307 22,000  Level Fort Worth Center
12:59PM 32.1331 -99.7150 266° West 268 308 22,000  Level Fort Worth Center
01:00PM 32.1250 -99.8206 265° West 269 310 22,000  Level Fort Worth Center
01:01PM 32.1192 -99.9103 266° West 270 311 22,000  Level Fort Worth Center
01:02PM 32.1125 -99.9992 265° West 270 311 22,000  Level Fort Worth Center
01:03PM 32.1067 -100.0881 266° West 270 311 22,000  Level Fort Worth Center
01:04PM 32.1011 -100.1775 266° West 271 312 22,000  Level Fort Worth Center
01:06PM 32.0947 -100.2664 265° West 271 312 22,000  Level Fort Worth Center
01:07PM 32.0886 -100.3556 265° West 271 312 22,000  Level Fort Worth Center
01:08PM 32.0814 -100.4611 265° West 270 311 22,000  Level Fort Worth Center
01:09PM 32.0742 -100.5494 265° West 271 312 22,000  Level Fort Worth Center
01:10PM 32.0678 -100.6389 265° West 271 312 22,000 -180 Level Fort Worth Center
01:11PM 32.0592 -100.7269 263° West 272 313 21,700 -600 Descending Fort Worth Center
01:12PM 32.0528 -100.8192 265° West 275 316 20,800 -960 Descending Fort Worth Center
01:13PM 32.0478 -100.9053 266° West 272 313 19,800 -1,020 Descending Fort Worth Center
01:14PM 32.0411 -100.9950 265° West 266 306 18,700 -1,080 Descending Fort Worth Center
01:15PM 32.0328 -101.0986 265° West 266 306 17,600 -1,020 Descending Fort Worth Center
01:16PM 32.0272 -101.1867 266° West 270 311 16,600 -960 Descending Fort Worth Center
01:17PM 32.0197 -101.2736 264° West 270 311 15,700 -960 Descending Fort Worth Center
01:18PM 32.0139 -101.3619 266° West 271 312 14,700 -1,020 Descending Fort Worth Center
01:19PM 31.9911 -101.4458 252° West 273 314 13,700 -1,020 Descending Fort Worth Center
01:20PM 31.9683 -101.5289 252° West 269 310 12,700 -1,020 Descending Fort Worth Center
01:21PM 31.9408 -101.6253 251° West 262 302 11,600 -1,080 Descending Fort Worth Center
01:22PM 31.9175 -101.7053 251° West 260 299 10,500 -1,140 Descending Fort Worth Center
01:23PM 31.8950 -101.7853 252° West 260 299 9,300 -1,200 Descending Fort Worth Center
01:24PM 31.8742 -101.8617 252° West 251 289 8,100 -1,200 Descending Fort Worth Center
01:25PM 31.8542 -101.9361 252° West 245 282 6,900 -1,260 Descending Fort Worth Center
01:26PM 31.8294 -102.0258 252° West 245 282 5,600 -960 Descending Fort Worth Center
01:27PM 31.8186 -102.0944 259° West 227 261 5,000 -360 Descending Fort Worth Center
01:28PM 31.8256 -102.1522 278° West 188 216 4,900 -360 Descending Fort Worth Center
01:29PM 31.8511 -102.1967 304° West 176 203 4,300 -600 Descending Fort Worth Center
01:30PM 31.8933 -102.1981 358° North 154 177 3,700 -600 Descending Fort Worth Center
01:31PM 31.9342 -102.2031 354° North 146 168 3,100 -600 Descending Fort Worth Center